EDT,Max TemperatureF,Mean TemperatureF,Min TemperatureF,Max Dew PointF,MeanDew PointF,Min DewpointF,Max Humidity, Mean Humidity, Min Humidity, Max Sea Level PressureIn, Mean Sea Level PressureIn, Min Sea Level PressureIn, Max VisibilityMiles, Mean VisibilityMiles, Min VisibilityMiles, Max Wind SpeedMPH, Mean Wind SpeedMPH, Max Gust SpeedMPH,PrecipitationIn, CloudCover, Events, WindDirDegrees
2013-7-1,68,65,62,64,62,58,93,85,76,30.06,30.01,29.94,10,8,2,23,13,28,0.38,8,Rain,32
2013-7-2,78,70,62,68,63,58,93,81,69,30.12,30.07,30.02,10,9,2,15,4,17,T,7,Rain,41
2013-7-3,87,77,67,73,69,65,100,81,62,30.16,30.13,30.09,10,5,0,39,4,58,2.37,7,Fog-Rain-Thunderstorm,182
2013-7-4,86,78,70,72,70,66,100,78,55,30.18,30.15,30.10,10,10,3,16,4,38,0.07,6,Rain,247
2013-7-5,86,79,71,73,70,68,93,77,61,30.15,30.11,30.05,10,10,10,18,6,22,0.02,6,,235
2013-7-6,87,77,67,69,66,63,93,72,51,30.16,30.10,30.03,10,10,10,9,4,13,T,4,,242
2013-7-7,83,77,71,72,69,64,93,76,58,30.06,30.01,29.94,10,10,3,17,9,24,0.16,7,Rain,242
2013-7-8,85,78,70,70,68,65,100,79,58,30.05,30.02,29.98,10,8,2,14,6,17,0.18,7,Rain-Thunderstorm,255
2013-7-9,83,77,71,72,70,67,93,78,62,30.06,29.99,29.90,10,10,6,17,3,23,0.04,7,Rain,209
2013-7-10,86,79,71,72,70,63,93,77,61,29.89,29.81,29.74,10,10,7,31,12,37,T,7,,232
2013-7-11,78,71,63,63,59,56,84,67,50,30.03,29.95,29.83,10,10,10,15,6,21,T,4,,313
2013-7-12,76,69,61,64,60,57,93,75,57,30.19,30.14,30.04,10,10,10,10,3,,0.00,6,,60
2013-7-13,81,71,60,69,65,60,100,82,64,30.26,30.22,30.18,10,10,10,10,2,13,T,6,Rain,102
2013-7-14,90,79,68,71,69,66,97,77,56,30.32,30.28,30.25,10,10,10,9,4,,0.00,3,,269
2013-7-15,89,80,71,73,69,62,93,68,43,30.31,30.27,30.24,10,10,10,13,4,17,T,5,,281
2013-7-16,91,80,68,70,67,61,90,65,40,30.30,30.26,30.22,10,10,8,13,4,16,T,2,Rain,274
2013-7-17,93,82,71,76,72,68,93,71,49,30.24,30.17,30.08,10,10,10,18,7,21,T,5,,250
2013-7-18,92,83,74,76,73,71,94,77,59,30.10,30.04,29.95,10,10,6,17,8,23,T,5,Rain-Thunderstorm,249
2013-7-19,93,82,70,74,69,62,90,67,44,29.95,29.83,29.73,10,10,1,31,15,43,0.59,4,Rain-Thunderstorm,243
2013-7-20,82,74,66,68,65,56,97,70,42,29.90,29.79,29.71,10,10,7,18,7,24,0.45,7,Rain-Thunderstorm,242
2013-7-21,76,69,62,64,59,55,93,74,54,30.03,29.98,29.91,10,10,10,14,5,16,0.00,6,,50
2013-7-22,82,72,61,66,61,58,90,71,51,30.01,29.91,29.79,10,10,10,14,4,16,0.01,7,Rain,94
2013-7-23,85,76,67,68,65,57,90,69,48,29.77,29.69,29.62,10,10,7,18,7,26,0.03,6,Rain,269
2013-7-24,67,61,55,57,50,46,86,67,48,30.06,29.90,29.72,10,10,10,22,9,28,0.00,6,,312
2013-7-25,74,62,50,53,50,44,96,67,38,30.14,30.11,30.07,10,10,10,14,5,17,0.00,2,,85
2013-7-26,76,64,51,56,52,48,100,72,43,30.14,30.09,30.02,10,10,10,12,4,,0.00,2,,79
2013-7-27,80,69,58,67,60,54,93,74,54,30.02,29.93,29.84,10,9,5,16,6,23,0.05,5,Rain,196
2013-7-28,74,67,59,66,62,56,93,77,61,29.99,29.90,29.82,10,10,5,12,5,20,0.06,6,Rain,241
2013-7-29,73,65,57,57,54,50,86,67,47,30.15,30.06,30.00,10,10,10,17,8,22,T,6,Rain,239
2013-7-30,76,66,55,58,56,54,93,70,46,30.22,30.17,30.15,10,10,9,14,6,18,0.00,5,,265
2013-7-31,81,69,57,65,59,54,93,69,45,30.17,30.09,29.95,10,10,8,13,5,15,0.00,5,,241